Mount Horeb, WI

10:56 AM CST on December 06, 2016 (GMT -0600)
WIDOT | | Change Station
Active Advisory: Dense Fog Advisory Active Notice: Local Storm Report

Elev 835 ft 42.99 °N, 89.75 °W | Updated 2 hours ago

Overcast
Overcast
31.0 °F
Feels Like 31.0 °F
N
2.0
Wind Variable Wind from SSE
Gusts 6.0 mph

Today
High -- | Low -- °F
--% Chance of Precip.
Yesterday
High -- | Low -- °F
Precip. -- in
Pressure 29.78 in
Visibility 5.0 miles
Clouds Overcast 600 ft
Dew Point 28.0 °F
Humidity 90%
Rainfall in
Snow Depth Not available.
7:16 AM 4:24 PM
Waxing Crescent, 43% visible
METAR KMSN 061653Z 21005KT 5SM BR OVC006 01/M01 A2975 RMK AO2 SLP085 T00061006
Pressure 29.78 in
Visibility 5.0 miles
Clouds Overcast 600 ft
Dew Point 28.0 °F
Humidity 90%
Rainfall in
Snow Depth Not available.
7:16 AM 4:24 PM
Waxing Crescent, 43% visible
METAR KMSN 061653Z 21005KT 5SM BR OVC006 01/M01 A2975 RMK AO2 SLP085 T00061006

10-Day Weather Forecast

Almanac

Astronomy

Dec. 06, 2016 Rise Set
Actual Time
Civil Twilight
Nautical Twilight
Astronomical Twilight
Moon
Length of Visible Light
Length of Day
Tomorrow will be .
, % of the Moon is Illuminated

Today's Extremes

State Highs State Lows

Community

WunderPhotos

Upload Photos

1,955,983 photos uploaded!

WunderBlog® & News

Nearby

Air Quality

  Air Quality AQ Index Pollutant
Not available.

Snow Depth

Station Depth Elevation

Earthquake Activity

City Distance Mag. Time & Date
Minimum magnitude displayed is 2.5.

Coastal Water Temperatures

Place Temperature

Stations

Nearby Weather Stations

Station Location Temp. Windchill Dew Point Humidity Wind Precip. Elev Updated Type
                   

Watches & Warnings

Dense Fog Advisory
Issued: 9:01 AM CST Dec. 6, 2016 – National Weather Service

... Dense fog advisory remains in effect until 11 am CST this
morning...

A dense fog advisory remains in effect until 11 am CST this
morning.

* Timing... areas of dense fog this morning.

* Visibility... areas of 1/4 mile or much less.

* Impacts... reduced visibilities and slippery roads from frost
formation.

Precautionary/preparedness actions...

A dense fog advisory means visibilities will frequently be
reduced to less than one quarter mile. If driving... slow down...
use your headlights... and leave plenty of distance ahead of you.



Halbach